Time;durP1;ratioP1;P1;durP2;ratioP2;P2;SDS_P1;SDS_P2;PMS_P1;PMS_P2;Temp;Humidity;BMP_temperature;BMP_pressure;BME280_temperature;BME280_humidity;BME280_pressure;Samples;Min_cycle;Max_cycle;Signal;HPM_P1;HPM_P2
2022/11/11 00:02:10;;;;;;;8.07;2.10;;;10.90;94.20;;;;;;5048134;28;20051;-68
2022/11/11 00:04:54;;;;;;;6.72;2.00;;;10.90;94.20;;;;;;5053385;28;20606;-67
2022/11/11 00:07:39;;;;;;;9.15;2.08;;;10.90;94.10;;;;;;5055256;28;20055;-67
2022/11/11 00:10:23;;;;;;;11.00;2.25;;;10.90;94.10;;;;;;5055934;28;20056;-67
2022/11/11 00:13:07;;;;;;;13.00;2.30;;;11.00;94.10;;;;;;5050928;28;20075;-67
2022/11/11 00:15:51;;;;;;;9.40;2.25;;;10.90;94.20;;;;;;5056581;28;20043;-67
2022/11/11 00:27:34;;;;;;;10.05;2.38;;;10.90;94.10;;;;;;5047625;28;20040;-67
2022/11/11 00:30:19;;;;;;;8.23;2.15;;;10.90;94.10;;;;;;5052466;28;20094;-67
2022/11/11 00:33:03;;;;;;;6.13;1.80;;;10.90;94.10;;;;;;5057973;28;20152;-66
2022/11/11 00:35:53;;;;;;;5.20;2.30;;;10.90;94.00;;;;;;5051294;28;20470;-67
2022/11/11 00:38:47;;;;;;;11.93;2.75;;;10.90;94.00;;;;;;5050460;28;20098;-66
2022/11/11 00:41:32;;;;;;;5.00;2.33;;;10.90;94.20;;;;;;5055616;28;20582;-67
2022/11/11 00:44:16;;;;;;;8.32;2.10;;;10.90;94.20;;;;;;5045372;28;20098;-67
2022/11/11 00:53:22;;;;;;;4.97;1.98;;;10.80;94.40;;;;;;5053375;28;20105;-66
2022/11/11 00:56:07;;;;;;;5.65;1.98;;;10.70;94.60;;;;;;5048746;28;20052;-67
2022/11/11 00:58:51;;;;;;;6.47;2.20;;;10.60;94.70;;;;;;5050387;28;20118;-72
2022/11/11 01:01:36;;;;;;;8.65;2.05;;;10.70;94.70;;;;;;5051250;28;20051;-71
2022/11/11 01:04:22;;;;;;;8.13;2.33;;;10.70;94.70;;;;;;5045326;28;20048;-71
2022/11/11 01:07:06;;;;;;;6.82;2.38;;;10.70;94.70;;;;;;5051087;28;20087;-72
2022/11/11 01:09:51;;;;;;;7.00;1.90;;;10.70;94.60;;;;;;5050730;28;20175;-67
2022/11/11 01:12:35;;;;;;;7.38;2.65;;;10.70;94.50;;;;;;5048216;28;20153;-67
2022/11/11 01:15:20;;;;;;;6.25;2.10;;;10.70;94.30;;;;;;5050196;28;20048;-66
2022/11/11 01:18:05;;;;;;;7.63;2.45;;;10.70;94.50;;;;;;5050875;28;20111;-67
2022/11/11 01:21:00;;;;;;;5.30;2.30;;;10.60;94.50;;;;;;5044192;28;20075;-67
2022/11/11 01:23:46;;;;;;;9.10;3.08;;;10.60;94.60;;;;;;5048066;28;20055;-66
2022/11/11 01:26:30;;;;;;;6.90;2.33;;;10.60;94.60;;;;;;5052856;28;20222;-71
2022/11/11 01:29:15;;;;;;;5.47;2.45;;;10.60;94.50;;;;;;5051605;28;20890;-66
2022/11/11 01:31:59;;;;;;;5.05;1.95;;;10.60;94.40;;;;;;5051082;28;20094;-67
2022/11/11 01:34:44;;;;;;;7.03;2.40;;;10.60;94.40;;;;;;5048263;28;20047;-66
2022/11/11 01:37:32;;;;;;;3.42;1.92;;;10.60;94.60;;;;;;5048521;28;20035;-66
2022/11/11 01:40:16;;;;;;;6.50;1.90;;;10.50;94.50;;;;;;5051027;28;20048;-66
2022/11/11 01:43:04;;;;;;;7.57;2.38;;;10.50;94.40;;;;;;5045979;28;20856;-67
2022/11/11 01:46:00;;;;;;;12.60;3.13;;;10.50;94.80;;;;;;5055121;28;20523;-66
2022/11/11 01:51:51;;;;;;;;;;;10.40;94.80;;;;;;5049913;28;20047;-71
2022/11/11 01:55:08;;;;;;;11.10;2.70;;;10.50;94.70;;;;;;5047070;28;19927;-72
2022/11/11 01:58:01;;;;;;;6.00;1.73;;;10.50;94.70;;;;;;5051754;28;20043;-71
2022/11/11 02:00:45;;;;;;;9.07;2.20;;;10.50;94.70;;;;;;5047532;28;20128;-71
2022/11/11 02:03:34;;;;;;;4.50;1.88;;;10.50;94.40;;;;;;5053144;28;20051;-71
2022/11/11 02:06:18;;;;;;;4.80;1.80;;;10.50;94.40;;;;;;5049692;28;20533;-72
2022/11/11 02:09:04;;;;;;;5.90;2.10;;;10.50;94.40;;;;;;5050495;28;20043;-71
2022/11/11 02:14:58;;;;;;;4.45;1.95;;;10.50;94.30;;;;;;5051390;28;20055;-72
2022/11/11 02:17:45;;;;;;;3.35;1.95;;;10.50;94.20;;;;;;5052366;28;20174;-71
2022/11/11 02:20:36;;;;;;;5.65;2.25;;;10.50;94.20;;;;;;5050034;28;20083;-72
2022/11/11 02:23:32;;;;;;;7.03;2.13;;;10.50;94.20;;;;;;5051310;28;20097;-72
2022/11/11 02:26:18;;;;;;;7.57;2.47;;;10.40;94.10;;;;;;5048944;28;20561;-72
2022/11/11 02:29:07;;;;;;;4.80;1.70;;;10.40;94.20;;;;;;5049910;28;20044;-71
2022/11/11 02:31:51;;;;;;;6.47;2.05;;;10.40;94.30;;;;;;5046411;28;20043;-72
2022/11/11 02:34:35;;;;;;;9.07;2.88;;;10.30;94.50;;;;;;5046847;28;20063;-72
2022/11/11 02:37:23;;;;;;;5.88;2.05;;;10.40;94.40;;;;;;5048898;28;20059;-72
2022/11/11 02:40:10;;;;;;;4.38;1.92;;;10.40;94.60;;;;;;5051789;28;20040;-72
2022/11/11 02:42:54;;;;;;;6.68;2.35;;;10.40;94.80;;;;;;5049142;28;20067;-67
2022/11/11 02:45:39;;;;;;;6.30;2.45;;;10.30;94.70;;;;;;5052773;28;20047;-67
2022/11/11 02:48:24;;;;;;;6.05;2.25;;;10.30;94.60;;;;;;5047356;28;20610;-66
2022/11/11 02:51:08;;;;;;;7.88;2.38;;;10.30;94.60;;;;;;5049222;28;20123;-67
2022/11/11 02:53:57;;;;;;;4.00;2.33;;;10.30;94.80;;;;;;5050254;28;20100;-67
2022/11/11 02:59:44;;;;;;;5.43;2.38;;;10.20;94.70;;;;;;5050921;28;20079;-67
2022/11/11 03:02:29;;;;;;;3.97;2.42;;;10.30;94.90;;;;;;5050365;28;20039;-71
2022/11/11 03:05:13;;;;;;;5.20;3.03;;;10.30;94.90;;;;;;5048257;28;20042;-72
2022/11/11 03:07:58;;;;;;;4.18;1.92;;;10.30;95.00;;;;;;5056109;28;20043;-71
2022/11/11 03:10:43;;;;;;;5.32;2.03;;;10.20;95.00;;;;;;5052596;28;20114;-72
2022/11/11 03:13:27;;;;;;;6.65;2.08;;;10.30;95.00;;;;;;5050439;28;20083;-71
2022/11/11 03:17:38;;;;;;;8.50;2.38;;;10.30;95.00;;;;;;5046951;28;20083;-72
2022/11/11 03:19:15;;;;;;;6.43;2.50;;;10.30;95.00;;;;;;5049823;28;20090;-71
2022/11/11 03:22:00;;;;;;;10.00;2.92;;;10.30;94.90;;;;;;5050567;28;20052;-71
2022/11/11 03:27:55;;;;;;;6.05;2.30;;;10.40;94.90;;;;;;5034892;28;20052;-71
2022/11/11 03:30:44;;;;;;;8.85;2.88;;;10.40;94.90;;;;;;5046727;28;20044;-72
2022/11/11 03:33:28;;;;;;;8.70;2.70;;;10.40;94.80;;;;;;5048783;28;20047;-70
2022/11/11 03:36:13;;;;;;;8.43;2.55;;;10.50;94.80;;;;;;5049210;28;20047;-72
2022/11/11 03:38:56;;;;;;;7.30;2.78;;;10.50;94.60;;;;;;5052023;28;20048;-71
2022/11/11 03:41:41;;;;;;;7.20;2.13;;;10.50;94.60;;;;;;5052013;28;20035;-71
2022/11/11 03:44:27;;;;;;;4.47;2.70;;;10.50;94.50;;;;;;5049024;28;20121;-67
2022/11/11 03:47:11;;;;;;;11.50;2.45;;;10.50;94.50;;;;;;5049897;28;20047;-67
2022/11/11 03:49:55;;;;;;;6.78;2.20;;;10.50;94.50;;;;;;5051508;28;20174;-66
2022/11/11 03:52:42;;;;;;;9.25;2.92;;;10.50;94.50;;;;;;5052068;28;20526;-67
2022/11/11 03:55:26;;;;;;;6.95;2.85;;;10.40;94.40;;;;;;5055857;28;20618;-67
2022/11/11 03:58:11;;;;;;;7.65;2.28;;;10.50;94.50;;;;;;5054454;28;20113;-66
2022/11/11 04:00:56;;;;;;;6.00;2.40;;;10.40;94.50;;;;;;5056935;28;20047;-67
2022/11/11 04:16:06;;;;;;;11.88;2.83;;;10.30;94.70;;;;;;5056569;28;20036;-67
2022/11/11 04:21:54;;;;;;;8.98;3.00;;;10.30;94.70;;;;;;5053125;28;20079;-67
2022/11/11 04:27:42;;;;;;;5.43;2.20;;;10.30;94.80;;;;;;5050719;28;20060;-71
2022/11/11 04:30:26;;;;;;;10.13;2.55;;;10.20;95.00;;;;;;5053013;28;20472;-71
2022/11/11 04:33:10;;;;;;;5.15;2.50;;;10.30;95.00;;;;;;5053602;28;20526;-72
2022/11/11 04:35:54;;;;;;;7.18;2.45;;;10.30;94.70;;;;;;5050428;28;20063;-70
2022/11/11 04:41:41;;;;;;;8.95;2.30;;;10.30;94.60;;;;;;5049977;28;20035;-71
2022/11/11 04:47:28;;;;;;;11.95;2.20;;;10.20;94.50;;;;;;5056459;28;20055;-71
2022/11/11 04:50:13;;;;;;;5.30;2.22;;;10.30;94.60;;;;;;5047092;28;20769;-71
2022/11/11 04:52:58;;;;;;;10.45;2.30;;;10.30;94.60;;;;;;5050849;28;20742;-72
2022/11/11 04:59:14;;;;;;;5.90;2.42;;;10.30;94.50;;;;;;5048557;28;20745;-72
2022/11/11 05:04:55;;;;;;;7.80;2.33;;;10.40;94.30;;;;;;5061897;28;20090;-71
2022/11/11 05:10:42;;;;;;;6.85;2.10;;;10.40;94.10;;;;;;5057001;28;20179;-67
2022/11/11 05:22:57;;;;;;;8.10;2.30;;;10.40;94.20;;;;;;5047724;28;20044;-71
2022/11/11 05:25:41;;;;;;;8.32;2.42;;;10.40;94.10;;;;;;5047953;28;20064;-66
2022/11/11 05:28:26;;;;;;;4.57;2.42;;;10.30;94.30;;;;;;5054393;28;20056;-67
2022/11/11 05:31:10;;;;;;;6.63;2.47;;;10.30;94.30;;;;;;5046885;28;20086;-67
2022/11/11 05:33:54;;;;;;;6.72;2.28;;;10.30;94.40;;;;;;5051060;28;20044;-67
2022/11/11 05:36:38;;;;;;;11.55;3.08;;;10.30;94.40;;;;;;5048440;28;20543;-67
2022/11/11 05:39:22;;;;;;;6.53;2.20;;;10.30;94.30;;;;;;5054840;28;20044;-67
2022/11/11 05:42:07;;;;;;;6.60;2.30;;;10.30;94.30;;;;;;5046694;28;20106;-66
2022/11/11 05:44:51;;;;;;;5.05;2.20;;;10.30;94.20;;;;;;5052262;28;20055;-67
2022/11/11 05:47:36;;;;;;;7.30;2.60;;;10.30;94.20;;;;;;5048054;28;20627;-67
2022/11/11 05:50:20;;;;;;;6.50;3.28;;;10.30;94.20;;;;;;5051567;28;20479;-67
2022/11/11 05:53:04;;;;;;;9.90;3.30;;;10.30;94.20;;;;;;5045896;28;20051;-66
2022/11/11 05:55:52;;;;;;;6.13;1.98;;;10.30;94.20;;;;;;5045499;28;20150;-67
2022/11/11 05:58:36;;;;;;;4.00;1.65;;;10.30;94.20;;;;;;5054672;28;20450;-67
2022/11/11 06:01:21;;;;;;;6.05;2.25;;;10.40;94.40;;;;;;5045606;28;20090;-67
2022/11/11 06:04:06;;;;;;;4.85;1.90;;;10.40;94.10;;;;;;5052851;28;20568;-67
2022/11/11 06:06:50;;;;;;;7.35;2.08;;;10.40;94.10;;;;;;5047162;28;20091;-66
2022/11/11 06:09:34;;;;;;;12.52;3.05;;;10.40;94.10;;;;;;5038427;28;20075;-67
2022/11/11 06:12:18;;;;;;;5.65;2.63;;;10.30;94.20;;;;;;5047736;28;20584;-67
2022/11/11 06:15:03;;;;;;;7.47;2.60;;;10.30;94.40;;;;;;5048932;28;20059;-67
2022/11/11 06:17:47;;;;;;;8.88;3.05;;;10.20;94.30;;;;;;5049876;28;20055;-66
2022/11/11 06:20:34;;;;;;;8.73;2.50;;;10.30;94.30;;;;;;5047677;28;20090;-66
2022/11/11 06:23:18;;;;;;;5.53;2.50;;;10.30;94.30;;;;;;5049469;28;20129;-66
2022/11/11 06:26:12;;;;;;;8.23;2.00;;;10.30;94.30;;;;;;5055772;28;20036;-66
2022/11/11 06:28:57;;;;;;;6.57;2.45;;;10.30;94.60;;;;;;5048023;28;20050;-67
2022/11/11 06:31:41;;;;;;;6.28;2.58;;;10.30;94.40;;;;;;5050369;28;20089;-66
2022/11/11 06:34:25;;;;;;;7.50;2.80;;;10.20;94.30;;;;;;5043865;28;20052;-67
2022/11/11 06:37:10;;;;;;;8.98;2.60;;;10.30;94.40;;;;;;5051095;28;20075;-66
2022/11/11 06:39:54;;;;;;;6.47;2.53;;;10.30;94.30;;;;;;5044296;28;20094;-67
2022/11/11 06:42:38;;;;;;;9.40;2.38;;;10.30;94.40;;;;;;5051423;28;20087;-67
2022/11/11 06:45:24;;;;;;;10.00;2.08;;;10.30;94.30;;;;;;5050281;28;20116;-67
2022/11/11 06:48:08;;;;;;;7.50;2.10;;;10.30;94.20;;;;;;5052369;28;20083;-67
2022/11/11 06:50:54;;;;;;;4.38;1.92;;;10.40;94.20;;;;;;5049923;28;20031;-66
2022/11/11 06:53:39;;;;;;;4.70;2.17;;;10.40;94.00;;;;;;5049984;28;20098;-67
2022/11/11 06:56:23;;;;;;;6.93;2.30;;;10.40;93.90;;;;;;5044260;28;20044;-66
2022/11/11 06:59:08;;;;;;;5.90;2.13;;;10.30;94.10;;;;;;5049214;28;20121;-66
2022/11/11 07:01:52;;;;;;;4.82;2.63;;;10.40;94.10;;;;;;5043388;28;20777;-67
2022/11/11 07:04:36;;;;;;;11.82;2.55;;;10.40;94.00;;;;;;5047655;28;20159;-66
2022/11/11 07:07:20;;;;;;;7.75;2.15;;;10.40;93.90;;;;;;5049717;28;20043;-66
2022/11/11 07:10:06;;;;;;;14.25;2.40;;;10.50;93.90;;;;;;5041876;28;20140;-67
2022/11/11 07:12:50;;;;;;;7.47;2.45;;;10.50;93.80;;;;;;5049689;28;20079;-67
2022/11/11 07:15:35;;;;;;;10.07;2.63;;;10.40;94.00;;;;;;5045543;28;20043;-66
2022/11/11 07:18:20;;;;;;;11.45;2.45;;;10.30;94.20;;;;;;5046209;28;20047;-66
2022/11/11 07:21:05;;;;;;;5.20;2.40;;;10.30;94.30;;;;;;5046504;28;20067;-67
2022/11/11 07:23:49;;;;;;;9.73;2.47;;;10.40;94.30;;;;;;5052327;28;20946;-66
2022/11/11 07:26:33;;;;;;;5.60;2.30;;;10.40;94.20;;;;;;5056533;28;20420;-66
2022/11/11 07:29:18;;;;;;;3.60;2.03;;;10.30;94.30;;;;;;5047609;28;20039;-66
2022/11/11 07:32:03;;;;;;;4.20;2.03;;;10.30;94.20;;;;;;5046668;28;20778;-67
2022/11/11 07:34:49;;;;;;;4.93;2.08;;;10.40;94.30;;;;;;5052003;28;20048;-66
2022/11/11 07:37:35;;;;;;;5.63;2.17;;;10.50;94.10;;;;;;5047520;28;20391;-67
2022/11/11 07:40:20;;;;;;;9.15;2.25;;;10.50;93.90;;;;;;5050787;28;20075;-67
2022/11/11 07:43:04;;;;;;;9.38;3.13;;;10.50;94.00;;;;;;5054285;28;20058;-66
2022/11/11 07:45:48;;;;;;;6.40;2.72;;;10.50;94.00;;;;;;5052637;28;20048;-67
2022/11/11 07:48:33;;;;;;;8.20;2.63;;;10.50;94.00;;;;;;5048728;28;20044;-67
2022/11/11 07:51:17;;;;;;;6.20;3.78;;;10.60;93.70;;;;;;5046685;28;20468;-66
2022/11/11 07:54:01;;;;;;;5.68;2.20;;;10.60;93.60;;;;;;5048508;28;20546;-67
2022/11/11 07:56:45;;;;;;;6.75;3.60;;;10.70;93.40;;;;;;5049581;28;20052;-66
2022/11/11 07:59:30;;;;;;;10.60;4.22;;;10.70;93.30;;;;;;5059886;28;20106;-67
2022/11/11 08:02:15;;;;;;;7.88;3.22;;;10.80;93.40;;;;;;5061426;28;20110;-66
2022/11/11 08:04:59;;;;;;;8.23;2.60;;;10.70;93.40;;;;;;5048252;28;20140;-66
2022/11/11 08:07:44;;;;;;;8.55;3.33;;;10.80;93.20;;;;;;5044959;28;20570;-66
2022/11/11 08:10:29;;;;;;;6.07;2.30;;;10.90;93.10;;;;;;5051227;28;20503;-67
2022/11/11 08:16:16;;;;;;;9.45;2.72;;;11.00;92.60;;;;;;5053765;28;20059;-67
2022/11/11 08:19:00;;;;;;;6.30;3.35;;;11.20;92.60;;;;;;5048973;28;20051;-67
2022/11/11 08:21:45;;;;;;;5.90;2.85;;;11.30;92.40;;;;;;5029966;28;20052;-66
2022/11/11 08:24:30;;;;;;;6.45;2.40;;;11.40;92.30;;;;;;5056165;28;20201;-67
2022/11/11 08:27:14;;;;;;;7.13;3.22;;;11.50;92.00;;;;;;5049453;28;20071;-67
2022/11/11 08:29:59;;;;;;;9.27;3.60;;;11.50;91.90;;;;;;5047684;28;20544;-67
2022/11/11 08:32:43;;;;;;;7.40;2.22;;;11.60;91.60;;;;;;5061066;28;20047;-67
2022/11/11 08:35:28;;;;;;;4.85;2.58;;;11.70;91.60;;;;;;5052269;28;20048;-67
2022/11/11 08:38:13;;;;;;;9.27;2.53;;;11.70;91.60;;;;;;5052797;28;20070;-67
2022/11/11 08:41:03;;;;;;;7.72;2.90;;;11.80;91.20;;;;;;5052381;28;20051;-67
2022/11/11 08:43:51;;;;;;;9.35;2.22;;;11.80;91.20;;;;;;5055834;28;20055;-67
2022/11/11 08:46:35;;;;;;;12.57;3.00;;;11.80;91.10;;;;;;5048033;28;20565;-67
2022/11/11 08:49:20;;;;;;;4.72;2.00;;;11.90;91.20;;;;;;5052296;28;20043;-67
2022/11/11 08:52:04;;;;;;;5.63;3.10;;;11.90;91.00;;;;;;5046946;28;20125;-67
2022/11/11 08:54:48;;;;;;;7.25;3.35;;;11.90;91.10;;;;;;5050447;28;20427;-66
2022/11/11 08:57:32;;;;;;;8.82;4.32;;;11.90;91.00;;;;;;5053790;28;20071;-66
2022/11/11 09:00:16;;;;;;;5.07;3.33;;;12.10;91.00;;;;;;5052935;28;20055;-66
2022/11/11 09:03:03;;;;;;;10.27;2.92;;;12.10;90.60;;;;;;5050767;28;20126;-66
2022/11/11 09:05:48;;;;;;;12.18;3.60;;;12.10;90.40;;;;;;5057766;28;20155;-66
2022/11/11 09:08:32;;;;;;;7.50;2.83;;;12.00;90.60;;;;;;5049246;28;20075;-67
2022/11/11 09:11:16;;;;;;;12.65;4.32;;;12.10;90.50;;;;;;5050623;28;20209;-66
2022/11/11 09:14:01;;;;;;;4.93;2.30;;;12.20;90.40;;;;;;5052160;28;20459;-71
2022/11/11 09:16:46;;;;;;;4.95;1.80;;;12.30;90.50;;;;;;5055227;28;20116;-68
2022/11/11 09:19:30;;;;;;;10.00;2.45;;;12.50;89.90;;;;;;5058624;28;20055;-68
2022/11/11 09:22:14;;;;;;;6.38;2.50;;;12.50;89.20;;;;;;5054071;28;20039;-69
2022/11/11 09:24:58;;;;;;;4.10;1.70;;;12.50;89.40;;;;;;5054613;28;20174;-69
2022/11/11 09:27:52;;;;;;;6.20;2.28;;;12.50;89.30;;;;;;5055284;28;20051;-69
2022/11/11 09:30:36;;;;;;;5.35;4.10;;;12.50;90.00;;;;;;5052778;28;20055;-68
2022/11/11 09:33:20;;;;;;;7.70;1.85;;;12.60;90.10;;;;;;5046067;28;20079;-68
2022/11/11 09:36:05;;;;;;;4.82;2.13;;;12.70;89.20;;;;;;5052757;28;20044;-69
2022/11/11 09:38:49;;;;;;;6.60;2.38;;;12.80;88.60;;;;;;5038231;28;20071;-67
2022/11/11 09:41:44;;;;;;;5.93;2.10;;;12.80;88.60;;;;;;5045279;28;20119;-68
2022/11/11 09:44:50;;;;;;;8.00;2.63;;;12.60;88.30;;;;;;5046812;28;20040;-69
2022/11/11 09:47:43;;;;;;;7.25;2.53;;;12.60;89.40;;;;;;5053292;28;20068;-68
2022/11/11 09:50:33;;;;;;;6.72;2.70;;;12.50;89.60;;;;;;5045664;28;20726;-67
2022/11/11 09:53:41;;;;;;;3.00;1.60;;;12.60;89.80;;;;;;5050044;28;20925;-70
2022/11/11 09:56:26;;;;;;;3.40;1.52;;;12.70;89.90;;;;;;5041464;28;20959;-66
2022/11/11 09:59:26;;;;;;;7.03;1.80;;;12.90;88.60;;;;;;5051107;28;20043;-68
2022/11/11 10:02:29;;;;;;;9.13;3.67;;;13.00;88.70;;;;;;5051054;28;20039;-67
2022/11/11 10:05:24;;;;;;;5.40;2.25;;;13.10;88.00;;;;;;5044024;28;20171;-66
2022/11/11 10:08:34;;;;;;;6.05;1.52;;;13.10;87.70;;;;;;5052160;28;20047;-67
2022/11/11 10:11:27;;;;;;;5.10;1.80;;;13.10;88.50;;;;;;5046800;28;20048;-67
2022/11/11 10:14:12;;;;;;;6.63;1.98;;;13.30;87.60;;;;;;5044601;28;20072;-67
2022/11/11 10:17:13;;;;;;;4.22;2.08;;;13.40;86.50;;;;;;5049990;28;20154;-66
2022/11/11 10:20:31;;;;;;;3.33;1.92;;;13.40;87.20;;;;;;5052511;28;20051;-67
2022/11/11 10:23:18;;;;;;;3.72;2.28;;;13.50;87.40;;;;;;5050925;28;20093;-71
2022/11/11 10:26:18;;;;;;;6.43;2.05;;;13.60;85.80;;;;;;5046226;28;20048;-68
2022/11/11 10:29:09;;;;;;;5.85;2.03;;;13.50;85.30;;;;;;5045894;28;20040;-68
2022/11/11 10:32:24;;;;;;;5.32;1.70;;;13.50;86.50;;;;;;5043999;28;20075;-68
2022/11/11 10:35:25;;;;;;;5.18;1.77;;;13.60;86.90;;;;;;5046769;28;20052;-68
2022/11/11 10:38:09;;;;;;;3.88;1.70;;;13.80;85.50;;;;;;5047261;28;20090;-68
2022/11/11 10:40:58;;;;;;;4.85;1.80;;;13.80;84.60;;;;;;5044169;28;20708;-68
2022/11/11 10:43:47;;;;;;;3.65;1.75;;;13.70;84.50;;;;;;5049589;28;20048;-69
2022/11/11 10:46:41;;;;;;;4.90;1.80;;;13.60;85.20;;;;;;5044332;28;20043;-68
2022/11/11 10:49:30;;;;;;;8.13;2.55;;;13.60;85.10;;;;;;5052044;28;20047;-71
2022/11/11 10:52:38;;;;;;;5.57;2.35;;;13.40;86.20;;;;;;5032746;28;20440;-71
2022/11/11 10:55:45;;;;;;;6.05;2.13;;;13.50;86.40;;;;;;5048903;28;20056;-67
2022/11/11 10:58:33;;;;;;;2.30;1.33;;;13.60;85.50;;;;;;5049881;28;20040;-67
2022/11/11 11:01:27;;;;;;;4.13;2.17;;;13.60;85.90;;;;;;5047199;28;20047;-66
2022/11/11 11:04:25;;;;;;;4.93;1.85;;;13.70;86.40;;;;;;5047643;28;20110;-65
2022/11/11 11:07:14;;;;;;;4.78;1.70;;;13.70;85.60;;;;;;5045167;28;20048;-66
2022/11/11 11:10:14;;;;;;;5.68;2.20;;;13.80;85.50;;;;;;5053420;28;20055;-66
2022/11/11 11:13:16;;;;;;;5.75;1.90;;;13.90;84.50;;;;;;5042113;28;20047;-67
2022/11/11 11:16:10;;;;;;;5.45;2.30;;;13.90;84.40;;;;;;5044316;28;20074;-70
2022/11/11 11:19:15;;;;;;;4.50;1.60;;;13.90;84.80;;;;;;5046941;28;20591;-70
2022/11/11 11:22:02;;;;;;;4.53;1.63;;;14.00;83.40;;;;;;5046180;28;20048;-73
2022/11/11 11:24:46;;;;;;;;;;;14.00;83.80;;;;;;5049183;28;20399;-70
2022/11/11 11:27:30;;;;;;;6.00;2.00;;;14.10;83.10;;;;;;5045150;28;19955;-70
2022/11/11 11:30:21;;;;;;;7.47;1.90;;;14.10;83.70;;;;;;5048441;28;20090;-71
2022/11/11 11:33:08;;;;;;;5.60;1.75;;;14.10;82.10;;;;;;5047304;28;20071;-70
2022/11/11 11:35:52;;;;;;;4.85;1.80;;;14.00;82.20;;;;;;5055670;28;21035;-68
2022/11/11 11:38:49;;;;;;;4.70;1.58;;;14.00;83.40;;;;;;5050078;28;20102;-68
2022/11/11 11:41:43;;;;;;;8.38;2.00;;;14.00;83.70;;;;;;5045696;28;20028;-67
2022/11/11 11:44:36;;;;;;;5.40;1.75;;;14.10;82.90;;;;;;5044945;28;20102;-67
2022/11/11 11:47:45;;;;;;;7.28;1.75;;;14.00;83.40;;;;;;5042360;28;20047;-67
2022/11/11 11:50:30;;;;;;;4.80;1.80;;;14.20;83.70;;;;;;5044249;28;20110;-66
2022/11/11 11:53:33;;;;;;;8.02;1.85;;;14.30;83.30;;;;;;5051288;28;20067;-67
2022/11/11 11:56:37;;;;;;;2.70;1.30;;;14.40;81.40;;;;;;5051722;28;20051;-68
2022/11/11 11:59:42;;;;;;;4.53;1.52;;;14.40;82.70;;;;;;5043005;28;20667;-67
2022/11/11 12:02:52;;;;;;;5.25;2.10;;;14.50;81.10;;;;;;5045953;28;20048;-65
2022/11/11 12:05:37;;;;;;;2.97;1.63;;;14.50;82.60;;;;;;5045935;28;20061;-66
2022/11/11 12:08:36;;;;;;;3.60;1.40;;;14.50;81.70;;;;;;5051530;28;20052;-67
2022/11/11 12:11:47;;;;;;;5.00;1.95;;;14.40;81.80;;;;;;5049786;28;20140;-65
2022/11/11 12:14:48;;;;;;;3.72;1.85;;;14.40;82.50;;;;;;5019360;28;20143;-65
2022/11/11 12:17:43;;;;;;;5.78;1.60;;;14.30;83.00;;;;;;5046621;28;20055;-65
2022/11/11 12:20:33;;;;;;;5.05;1.45;;;14.30;81.40;;;;;;5051206;28;20043;-65
2022/11/11 12:23:57;;;;;;;3.13;1.25;;;14.40;81.80;;;;;;5046353;28;20056;-65
2022/11/11 12:27:07;;;;;;;5.22;1.35;;;14.20;81.80;;;;;;5052348;28;20571;-65
2022/11/11 12:29:51;;;;;;;5.60;1.80;;;14.30;81.80;;;;;;5053479;28;20109;-65
2022/11/11 12:32:47;;;;;;;3.00;1.52;;;14.30;81.60;;;;;;5051262;28;20060;-66
2022/11/11 12:35:55;;;;;;;7.63;1.75;;;14.30;81.40;;;;;;5047051;28;20167;-66
2022/11/11 12:38:46;;;;;;;7.22;1.40;;;14.30;82.40;;;;;;5045974;28;20055;-66
2022/11/11 12:41:58;;;;;;;3.38;1.23;;;14.30;81.60;;;;;;5051935;28;20062;-65
2022/11/11 12:44:52;;;;;;;3.30;1.33;;;14.20;82.40;;;;;;5052655;28;20067;-65
2022/11/11 12:48:00;;;;;;;5.30;1.50;;;14.20;81.90;;;;;;5046448;28;20076;-64
2022/11/11 12:51:20;;;;;;;6.60;1.60;;;14.20;82.50;;;;;;5054924;28;20071;-67
2022/11/11 12:54:34;;;;;;;2.17;1.25;;;14.30;82.00;;;;;;5050513;28;20408;-67
2022/11/11 12:57:38;;;;;;;4.50;1.75;;;14.30;82.70;;;;;;5050291;28;20685;-66
2022/11/11 13:00:23;;;;;;;2.28;1.33;;;14.40;82.10;;;;;;5045854;28;20051;-67
2022/11/11 13:03:39;;;;;;;3.50;1.40;;;14.40;82.30;;;;;;5045462;28;20854;-67
2022/11/11 13:06:38;;;;;;;2.90;1.50;;;14.50;83.50;;;;;;5054564;28;20918;-67
2022/11/11 13:09:45;;;;;;;2.50;1.38;;;14.50;82.10;;;;;;5057279;28;20749;-68
2022/11/11 13:13:02;;;;;;;5.30;1.75;;;14.40;82.50;;;;;;5052101;28;20078;-69
2022/11/11 13:15:48;;;;;;;3.80;1.37;;;14.50;82.20;;;;;;5048361;28;20043;-68
2022/11/11 13:18:55;;;;;;;3.78;1.60;;;14.50;82.00;;;;;;5048935;28;20519;-65
2022/11/11 13:22:07;;;;;;;5.47;1.70;;;14.50;81.70;;;;;;5043030;28;20036;-66
2022/11/11 13:24:53;;;;;;;5.53;1.50;;;14.50;82.20;;;;;;5059397;28;20044;-65
2022/11/11 13:27:46;;;;;;;4.35;1.42;;;14.40;82.00;;;;;;5046141;28;20114;-65
2022/11/11 13:31:08;;;;;;;3.20;1.40;;;14.40;82.00;;;;;;5049805;28;20129;-65
2022/11/11 13:33:57;;;;;;;7.25;1.83;;;14.30;82.30;;;;;;5022238;28;20141;-65
2022/11/11 13:36:49;;;;;;;5.47;1.45;;;14.20;82.50;;;;;;5047865;28;20479;-63
2022/11/11 13:39:40;;;;;;;6.82;1.50;;;14.10;82.80;;;;;;5056857;28;20199;-63
2022/11/11 13:42:29;;;;;;;6.53;2.58;;;14.10;82.20;;;;;;5043846;28;20439;-70
2022/11/11 13:45:30;;;;;;;5.47;1.50;;;14.10;83.10;;;;;;5044267;28;20083;-72
2022/11/11 13:48:32;;;;;;;3.60;1.33;;;14.10;83.20;;;;;;5050320;28;20125;-69
2022/11/11 13:51:42;;;;;;;2.30;1.50;;;14.20;82.90;;;;;;5056275;28;20067;-71
2022/11/11 13:54:41;;;;;;;2.88;1.48;;;14.20;82.70;;;;;;5047219;28;20044;-71
2022/11/11 13:57:28;;;;;;;3.22;1.38;;;14.10;83.10;;;;;;5048633;28;20938;-70
2022/11/11 14:00:16;;;;;;;3.95;1.65;;;14.10;83.40;;;;;;5047670;28;20142;-70
2022/11/11 14:03:16;;;;;;;4.07;1.60;;;14.10;83.50;;;;;;5051187;28;20038;-70
2022/11/11 14:06:15;;;;;;;4.47;1.52;;;14.20;83.30;;;;;;5046674;28;20051;-66
2022/11/11 14:09:00;;;;;;;4.03;1.42;;;14.30;82.90;;;;;;5044281;28;20291;-68
2022/11/11 14:11:44;;;;;;;1.98;1.40;;;14.40;83.00;;;;;;5054761;28;20106;-67
2022/11/11 14:14:44;;;;;;;5.13;1.73;;;14.30;82.40;;;;;;5041960;28;20048;-65
2022/11/11 14:17:29;;;;;;;4.25;1.52;;;14.40;82.80;;;;;;5050564;28;20097;-66
2022/11/11 14:20:50;;;;;;;4.30;1.98;;;14.40;82.30;;;;;;5048706;28;20126;-66
2022/11/11 14:23:42;;;;;;;5.95;1.70;;;14.40;82.60;;;;;;5024129;28;20214;-67
2022/11/11 14:26:27;;;;;;;4.35;2.17;;;14.40;82.80;;;;;;5047084;28;20032;-67
2022/11/11 14:29:19;;;;;;;3.30;1.63;;;14.40;83.00;;;;;;5047359;28;20420;-67
2022/11/11 14:32:29;;;;;;;6.80;2.15;;;14.40;83.80;;;;;;5043704;28;20232;-67
2022/11/11 14:35:25;;;;;;;5.68;1.40;;;14.50;82.80;;;;;;5045594;28;20061;-67
2022/11/11 14:38:32;;;;;;;6.53;2.17;;;14.30;82.80;;;;;;5047575;28;20732;-68
2022/11/11 14:41:50;;;;;;;4.90;2.00;;;14.20;82.90;;;;;;5042986;28;20039;-67
2022/11/11 14:44:34;;;;;;;4.97;1.50;;;14.10;83.20;;;;;;5005823;28;20417;-68
2022/11/11 14:47:34;;;;;;;3.83;1.50;;;14.00;84.10;;;;;;5051684;28;20277;-67
2022/11/11 14:50:30;;;;;;;4.05;2.28;;;14.10;85.30;;;;;;5046754;28;20087;-66
2022/11/11 14:53:18;;;;;;;3.45;1.65;;;14.00;85.00;;;;;;5045483;28;20083;-65
2022/11/11 14:56:03;;;;;;;4.88;1.77;;;14.00;85.80;;;;;;5048505;28;20907;-67
2022/11/11 14:58:47;;;;;;;2.83;1.60;;;14.00;86.20;;;;;;5051258;28;20285;-66
2022/11/11 15:01:33;;;;;;;3.40;1.50;;;13.90;86.50;;;;;;5043403;28;20043;-66
2022/11/11 15:04:18;;;;;;;6.35;1.42;;;13.90;86.90;;;;;;5044636;28;20039;-67
2022/11/11 15:07:02;;;;;;;2.35;1.73;;;13.80;87.10;;;;;;5045881;28;20170;-66
2022/11/11 15:10:06;;;;;;;5.55;4.30;;;13.70;87.20;;;;;;5046301;28;20091;-65
2022/11/11 15:13:19;;;;;;;10.18;8.20;;;13.70;87.70;;;;;;5047561;28;20095;-65
2022/11/11 15:16:31;;;;;;;8.68;7.88;;;13.60;88.10;;;;;;5049361;28;20051;-70
2022/11/11 15:19:21;;;;;;;7.22;6.22;;;13.50;88.40;;;;;;5046592;28;20110;-70
2022/11/11 15:22:27;;;;;;;6.40;4.57;;;13.40;88.60;;;;;;5044752;28;20700;-70
2022/11/11 15:25:29;;;;;;;3.65;3.03;;;13.30;88.80;;;;;;5048302;28;20420;-68
2022/11/11 15:28:17;;;;;;;4.47;2.50;;;13.20;89.10;;;;;;5045395;28;20067;-69
2022/11/11 15:31:42;;;;;;;5.53;1.92;;;13.10;89.40;;;;;;5049426;28;20043;-69
2022/11/11 15:34:53;;;;;;;4.05;1.90;;;13.00;89.60;;;;;;5047801;28;20056;-70
2022/11/11 15:37:37;;;;;;;2.78;1.30;;;13.00;90.00;;;;;;5054143;28;20031;-72
2022/11/11 15:40:25;;;;;;;4.63;2.10;;;12.90;90.10;;;;;;5055711;28;20047;-66
2022/11/11 15:43:20;;;;;;;4.60;2.10;;;12.80;90.20;;;;;;5052707;28;20040;-66
2022/11/11 15:46:05;;;;;;;4.53;2.05;;;12.70;90.30;;;;;;5057481;28;20808;-70
2022/11/11 15:48:50;;;;;;;4.38;1.90;;;12.70;90.40;;;;;;5048960;28;20047;-68
2022/11/11 15:51:35;;;;;;;3.87;2.33;;;12.60;90.50;;;;;;5048563;28;20824;-70
2022/11/11 15:54:25;;;;;;;6.25;4.18;;;12.50;90.60;;;;;;5053896;28;20090;-69
2022/11/11 15:57:26;;;;;;;9.57;6.47;;;12.50;90.80;;;;;;5054401;28;20090;-70
2022/11/11 16:00:31;;;;;;;8.65;5.88;;;12.40;90.90;;;;;;5046591;28;20407;-76